Time;durP1;ratioP1;P1;durP2;ratioP2;P2;SDS_P1;SDS_P2;PMS_P1;PMS_P2;Temp;Humidity;BMP_temperature;BMP_pressure;BME280_temperature;BME280_humidity;BME280_pressure;Samples;Min_cycle;Max_cycle;Signal;HPM_P1;HPM_P2
2022/04/01 00:01:00;;;;;;;7.30;4.65;;;;;;;3.86;59.63;99376.59;5086695;28;20024;-22
2022/04/01 00:03:26;;;;;;;7.65;4.60;;;;;;;3.88;59.66;99372.25;5090168;28;20055;-22
2022/04/01 00:05:51;;;;;;;7.45;4.45;;;;;;;3.87;59.51;99372.25;5068484;28;20406;-22
2022/04/01 00:08:17;;;;;;;6.38;3.90;;;;;;;3.87;59.42;99374.84;5086816;28;20461;-22
2022/04/01 00:10:43;;;;;;;7.22;4.80;;;;;;;3.85;59.62;99373.13;5089284;28;20115;-22
2022/04/01 00:13:08;;;;;;;7.38;4.82;;;;;;;3.85;59.17;99367.91;5089703;28;20115;-22
2022/04/01 00:15:34;;;;;;;6.70;4.22;;;;;;;3.84;59.33;99371.38;5088786;28;20055;-22
2022/04/01 00:18:00;;;;;;;7.03;4.85;;;;;;;3.85;58.97;99365.31;5086670;28;20032;-22
2022/04/01 00:20:27;;;;;;;6.32;4.30;;;;;;;3.86;59.26;99360.94;5088946;28;20035;-22
2022/04/01 00:22:53;;;;;;;6.40;4.45;;;;;;;3.85;59.29;99364.41;5087632;28;20294;-22
2022/04/01 00:25:19;;;;;;;6.40;4.28;;;;;;;3.85;59.10;99367.03;5072103;28;20113;-23
2022/04/01 00:27:44;;;;;;;7.78;4.47;;;;;;;3.84;59.30;99371.38;5089044;28;20416;-22
2022/04/01 00:30:10;;;;;;;5.65;4.50;;;;;;;3.83;58.88;99367.03;5089307;28;20462;-22
2022/04/01 00:32:36;;;;;;;7.03;4.97;;;;;;;3.83;58.91;99376.59;5086600;28;20035;-22
2022/04/01 00:35:02;;;;;;;8.52;4.60;;;;;;;3.83;59.02;99373.97;5083949;28;20035;-22
2022/04/01 00:37:28;;;;;;;5.85;4.65;;;;;;;3.83;58.97;99371.38;5090937;28;20019;-22
2022/04/01 00:39:53;;;;;;;6.22;4.22;;;;;;;3.84;59.07;99367.91;5087708;28;20323;-22
2022/04/01 00:42:19;;;;;;;7.93;4.97;;;;;;;3.82;59.32;99369.63;5091056;28;20127;-22
2022/04/01 00:44:44;;;;;;;6.80;4.60;;;;;;;3.83;58.70;99371.38;5085245;28;20047;-21
2022/04/01 00:47:12;;;;;;;6.05;4.18;;;;;;;3.82;59.03;99375.72;5084630;28;20543;-22
2022/04/01 00:49:39;;;;;;;5.88;4.32;;;;;;;3.81;58.92;99365.31;5088332;28;20028;-22
2022/04/01 00:52:07;;;;;;;7.63;5.13;;;;;;;3.81;58.85;99373.13;5087948;28;20567;-21
2022/04/01 00:54:35;;;;;;;5.65;4.30;;;;;;;3.80;59.20;99376.63;5089952;28;20016;-22
2022/04/01 00:57:02;;;;;;;8.95;4.90;;;;;;;3.81;59.00;99373.13;5088091;28;20024;-22
2022/04/01 00:59:28;;;;;;;4.93;4.45;;;;;;;3.78;58.70;99373.13;5090106;28;20394;-22
2022/04/01 01:01:53;;;;;;;5.57;4.30;;;;;;;3.80;58.64;99376.63;5087046;28;20355;-22
2022/04/01 01:04:20;;;;;;;9.13;5.32;;;;;;;3.77;58.90;99384.44;5089739;28;20035;-22
2022/04/01 01:06:48;;;;;;;7.28;5.10;;;;;;;3.76;58.62;99375.72;5086890;28;20024;-22
2022/04/01 01:09:14;;;;;;;7.85;5.45;;;;;;;3.76;58.64;99380.94;5089537;28;20020;-22
2022/04/01 01:11:40;;;;;;;7.65;4.53;;;;;;;3.76;58.77;99375.72;5082895;28;20024;-22
2022/04/01 01:14:11;;;;;;;5.10;4.25;;;;;;;3.77;58.46;99376.63;5085809;28;20023;-22
2022/04/01 01:16:40;;;;;;;5.83;4.73;;;;;;;3.75;58.75;99383.56;5070037;28;20395;-22
2022/04/01 01:19:08;;;;;;;8.43;4.70;;;;;;;3.76;58.62;99382.72;5086800;28;20184;-22
2022/04/01 01:21:34;;;;;;;5.80;4.22;;;;;;;3.75;58.41;99374.00;5089085;28;20024;-22
2022/04/01 01:24:01;;;;;;;7.05;4.72;;;;;;;3.75;58.66;99375.72;5069211;28;20073;-22
2022/04/01 01:26:27;;;;;;;6.57;4.45;;;;;;;3.73;58.53;99370.53;5090004;28;20462;-22
2022/04/01 01:28:56;;;;;;;6.30;4.53;;;;;;;3.74;58.60;99374.00;5089252;28;20089;-22
2022/04/01 01:31:21;;;;;;;7.72;4.63;;;;;;;3.73;58.14;99375.72;5085297;28;20158;-23
2022/04/01 01:33:48;;;;;;;6.32;4.75;;;;;;;3.73;58.77;99375.72;5088087;28;20454;-22
2022/04/01 01:36:14;;;;;;;6.45;4.72;;;;;;;3.68;58.12;99370.56;5091097;28;20034;-22
2022/04/01 01:38:39;;;;;;;6.88;4.53;;;;;;;3.68;58.73;99361.84;5091970;28;20323;-21
2022/04/01 01:41:05;;;;;;;9.20;4.72;;;;;;;3.67;58.67;99366.19;5093280;28;21029;-22
2022/04/01 01:43:30;;;;;;;7.75;4.55;;;;;;;3.69;58.53;99354.03;5093294;28;20436;-22
2022/04/01 01:45:56;;;;;;;7.43;4.95;;;;;;;3.66;58.29;99348.81;5081247;28;20059;-22
2022/04/01 01:48:22;;;;;;;5.95;4.95;;;;;;;3.70;58.52;99349.69;5076925;28;20042;-22
2022/04/01 01:56:17;;;;;;;7.25;4.43;;;;;;;3.66;58.35;99354.03;5093634;28;20081;-22
2022/04/01 01:58:43;;;;;;;6.68;4.63;;;;;;;3.66;57.88;99354.03;5074032;28;20479;-23
2022/04/01 02:01:09;;;;;;;5.82;4.60;;;;;;;3.66;58.23;99360.97;5091191;28;20039;-22
2022/04/01 02:03:34;;;;;;;6.32;4.75;;;;;;;3.65;58.46;99354.91;5090497;28;20019;-23
2022/04/01 02:06:00;;;;;;;7.07;5.50;;;;;;;3.62;57.86;99348.81;5092936;28;20055;-21
2022/04/01 02:08:25;;;;;;;8.18;5.22;;;;;;;3.63;58.22;99348.81;5090246;28;20024;-22
2022/04/01 02:10:51;;;;;;;6.38;4.75;;;;;;;3.62;57.94;99352.31;5090339;28;20387;-23
2022/04/01 02:13:17;;;;;;;6.45;5.05;;;;;;;3.63;58.58;99354.03;5089791;28;20028;-22
2022/04/01 02:15:42;;;;;;;5.85;5.20;;;;;;;3.63;58.08;99359.25;5090091;28;20081;-22
2022/04/01 02:18:10;;;;;;;5.60;4.93;;;;;;;3.62;58.24;99351.41;5091577;28;20031;-22
2022/04/01 02:20:36;;;;;;;6.95;4.97;;;;;;;3.61;58.08;99363.59;5090948;28;20060;-21
2022/04/01 02:23:03;;;;;;;9.18;4.95;;;;;;;3.59;58.16;99360.13;5073994;28;20055;-22
2022/04/01 02:25:30;;;;;;;6.13;4.53;;;;;;;3.59;57.76;99355.78;5089904;28;20026;-21
2022/04/01 02:27:56;;;;;;;6.43;5.22;;;;;;;3.59;57.66;99360.13;5086564;28;20066;-21
2022/04/01 02:30:22;;;;;;;9.27;5.60;;;;;;;3.59;58.03;99362.72;5089694;28;20390;-22
2022/04/01 02:32:48;;;;;;;7.90;5.60;;;;;;;3.58;57.90;99353.19;5086337;28;20431;-22
2022/04/01 02:35:13;;;;;;;6.70;4.72;;;;;;;3.58;58.04;99361.00;5091320;28;20154;-22
2022/04/01 02:37:39;;;;;;;6.40;5.10;;;;;;;3.56;58.16;99362.72;5087218;28;20277;-21
2022/04/01 02:40:07;;;;;;;8.18;5.10;;;;;;;3.56;58.15;99362.72;5085896;28;20531;-23
2022/04/01 02:42:33;;;;;;;8.88;5.20;;;;;;;3.57;58.01;99364.50;5091277;28;20020;-22
2022/04/01 02:44:59;;;;;;;6.43;4.70;;;;;;;3.56;58.04;99363.59;5090301;28;20097;-22
2022/04/01 02:47:27;;;;;;;9.52;5.63;;;;;;;3.55;58.02;99363.59;5090144;28;20024;-23
2022/04/01 02:49:54;;;;;;;7.30;4.78;;;;;;;3.52;57.91;99361.88;5089163;28;20035;-22
2022/04/01 02:52:19;;;;;;;8.68;5.13;;;;;;;3.54;58.30;99367.09;5090171;28;20039;-22
2022/04/01 02:54:45;;;;;;;6.18;4.93;;;;;;;3.54;58.07;99372.31;5086678;28;20035;-22
2022/04/01 02:57:10;;;;;;;5.43;4.90;;;;;;;3.54;58.00;99377.53;5070661;28;20024;-22
2022/04/01 02:59:36;;;;;;;6.78;4.70;;;;;;;3.54;58.18;99374.91;5090920;28;20051;-22
2022/04/01 03:02:02;;;;;;;6.35;4.72;;;;;;;3.55;58.07;99368.81;5090479;28;20107;-21
2022/04/01 03:04:28;;;;;;;7.80;5.85;;;;;;;3.53;58.09;99370.56;5088882;28;20454;-22
2022/04/01 03:06:53;;;;;;;7.38;5.10;;;;;;;3.51;58.05;99380.13;5088394;28;20024;-22
2022/04/01 03:09:19;;;;;;;7.20;4.68;;;;;;;3.50;57.70;99375.78;5086766;28;20110;-22
2022/04/01 03:11:44;;;;;;;7.05;4.72;;;;;;;3.51;57.47;99380.13;5089098;28;20027;-22
2022/04/01 03:14:11;;;;;;;10.13;5.10;;;;;;;3.49;57.77;99371.41;5091186;28;20444;-23
2022/04/01 03:16:38;;;;;;;7.68;5.03;;;;;;;3.50;57.71;99375.78;5090211;28;20043;-22
2022/04/01 03:19:08;;;;;;;9.23;5.47;;;;;;;3.50;57.60;99383.63;5087301;28;20111;-22
2022/04/01 03:21:35;;;;;;;6.05;4.78;;;;;;;3.49;57.16;99367.09;5086440;28;20024;-22
2022/04/01 03:24:01;;;;;;;8.85;5.25;;;;;;;3.47;57.47;99377.50;5087951;28;20077;-22
2022/04/01 03:26:27;;;;;;;7.80;5.05;;;;;;;3.46;57.51;99386.22;5072259;28;20584;-22
2022/04/01 03:28:52;;;;;;;11.02;5.57;;;;;;;3.45;56.77;99381.00;5087221;28;20050;-22
2022/04/01 03:31:18;;;;;;;7.53;4.55;;;;;;;3.45;56.93;99386.22;5090760;28;20019;-22
2022/04/01 03:33:44;;;;;;;10.10;4.95;;;;;;;3.45;56.89;99386.22;5090880;28;20070;-21
2022/04/01 03:36:10;;;;;;;8.65;4.95;;;;;;;3.43;56.75;99388.81;5097746;28;20055;-21
2022/04/01 03:38:36;;;;;;;6.60;5.10;;;;;;;3.42;56.87;99392.31;5085412;28;20028;-22
2022/04/01 03:41:03;;;;;;;6.65;5.13;;;;;;;3.41;56.56;99387.09;5084295;28;20066;-22
2022/04/01 03:43:29;;;;;;;7.13;5.63;;;;;;;3.41;56.40;99390.56;5084297;28;20029;-22
2022/04/01 03:45:55;;;;;;;5.97;4.68;;;;;;;3.39;56.85;99394.91;5089882;28;20036;-22
2022/04/01 03:48:24;;;;;;;7.68;4.80;;;;;;;3.40;56.79;99393.19;5087081;28;20020;-22
2022/04/01 03:50:56;;;;;;;5.78;4.63;;;;;;;3.40;56.71;99399.25;5071309;28;20024;-22
2022/04/01 03:53:28;;;;;;;6.85;5.00;;;;;;;3.39;56.75;99396.63;5089331;28;20016;-22
2022/04/01 03:55:55;;;;;;;6.03;5.15;;;;;;;3.38;56.12;99395.78;5090555;28;20046;-22
2022/04/01 03:58:26;;;;;;;6.00;4.35;;;;;;;3.37;56.17;99401.84;5085811;28;20020;-22
2022/04/01 04:00:53;;;;;;;7.75;5.03;;;;;;;3.36;56.20;99396.66;5087455;28;20131;-22
2022/04/01 04:03:18;;;;;;;6.63;5.03;;;;;;;3.35;56.39;99390.56;5088613;28;20016;-22
2022/04/01 04:05:47;;;;;;;6.45;4.75;;;;;;;3.34;56.43;99394.03;5088954;28;20109;-22
2022/04/01 04:08:12;;;;;;;7.25;4.82;;;;;;;3.34;56.24;99402.72;5088670;28;20458;-22
2022/04/01 04:10:38;;;;;;;6.57;4.93;;;;;;;3.32;56.04;99396.66;5072281;28;20513;-22
2022/04/01 04:13:06;;;;;;;8.23;5.10;;;;;;;3.33;56.15;99402.72;5071615;28;20089;-22
2022/04/01 04:16:04;;;;;;;8.43;5.20;;;;;;;3.32;55.73;99406.19;5091644;28;20031;-22
2022/04/01 04:18:33;;;;;;;9.50;4.70;;;;;;;3.29;56.11;99414.00;5081573;28;20429;-22
2022/04/01 04:21:11;;;;;;;8.38;5.20;;;;;;;3.28;56.27;99420.97;5090488;28;20051;-22
2022/04/01 04:23:47;;;;;;;7.90;5.25;;;;;;;3.26;56.08;99432.25;5071958;28;20121;-22
2022/04/01 04:26:25;;;;;;;7.47;4.80;;;;;;;3.23;56.45;99443.53;5072656;28;20397;-22
2022/04/01 04:28:56;;;;;;;9.93;5.68;;;;;;;3.20;56.76;99454.84;5087685;28;20023;-22
2022/04/01 04:31:28;;;;;;;6.45;4.72;;;;;;;3.20;56.90;99452.22;5075961;28;20056;-22
2022/04/01 04:33:56;;;;;;;7.43;5.28;;;;;;;3.19;57.09;99458.31;5087648;28;20058;-22
2022/04/01 04:36:27;;;;;;;8.70;5.38;;;;;;;3.17;57.31;99465.25;5087608;28;20078;-23
2022/04/01 04:38:54;;;;;;;11.43;6.15;;;;;;;3.16;57.64;99460.91;5089668;28;20024;-22
2022/04/01 04:41:20;;;;;;;9.05;5.18;;;;;;;3.12;57.88;99461.78;5077569;28;20451;-22
2022/04/01 04:43:47;;;;;;;8.35;5.50;;;;;;;3.12;57.81;99472.19;5094397;28;20032;-22
2022/04/01 04:46:14;;;;;;;12.20;5.65;;;;;;;3.09;58.01;99466.97;5074158;28;20028;-22
2022/04/01 04:48:41;;;;;;;10.77;5.60;;;;;;;3.08;58.27;99486.09;5091390;28;20131;-23
2022/04/01 04:51:08;;;;;;;8.52;5.65;;;;;;;3.07;58.24;99482.59;5097186;28;20118;-22
2022/04/01 04:53:34;;;;;;;5.60;4.90;;;;;;;3.06;58.51;99485.19;5088419;28;20048;-22
2022/04/01 04:56:04;;;;;;;8.10;5.28;;;;;;;3.03;58.93;99487.81;5093060;28;20031;-22
2022/04/01 04:58:40;;;;;;;6.20;5.07;;;;;;;3.00;58.99;99486.06;5091746;28;20493;-22
2022/04/01 05:01:17;;;;;;;9.68;5.70;;;;;;;3.00;59.15;99490.41;5088185;28;20024;-23
2022/04/01 05:04:09;;;;;;;6.47;4.88;;;;;;;2.97;59.46;99482.59;5075024;28;20096;-22
2022/04/01 05:06:42;;;;;;;6.47;4.78;;;;;;;2.94;59.63;99486.06;5081965;28;20036;-22
2022/04/01 05:09:23;;;;;;;6.15;5.05;;;;;;;2.91;59.61;99488.63;5089402;28;20032;-22
2022/04/01 05:11:52;;;;;;;;;;;;;;;2.90;59.55;99492.13;5087518;28;20500;-22
2022/04/01 05:14:40;;;;;;;6.70;5.15;;;;;;;2.87;59.74;99498.16;5072371;28;19916;-22
2022/04/01 05:17:09;;;;;;;9.57;5.07;;;;;;;2.85;59.90;99499.91;5095824;28;20071;-22
2022/04/01 05:19:38;;;;;;;6.10;4.93;;;;;;;2.81;60.04;99503.38;5099417;28;20023;-22
2022/04/01 05:22:09;;;;;;;5.78;4.85;;;;;;;2.80;60.11;99507.69;5082527;28;20020;-22
2022/04/01 05:24:46;;;;;;;6.93;4.97;;;;;;;2.77;60.12;99512.03;5096156;28;20038;-22
2022/04/01 05:27:40;;;;;;;8.82;4.93;;;;;;;2.74;60.17;99517.22;5093156;28;20119;-22
2022/04/01 05:30:16;;;;;;;7.93;5.28;;;;;;;2.71;60.04;99506.78;5095161;28;20421;-22
2022/04/01 05:33:10;;;;;;;7.00;4.53;;;;;;;2.71;60.24;99514.59;5098815;28;20027;-22
2022/04/01 05:35:38;;;;;;;6.43;4.82;;;;;;;2.67;60.09;99517.19;5099685;28;20092;-22
2022/04/01 05:38:05;;;;;;;8.05;5.57;;;;;;;2.66;60.26;99522.38;5097993;28;20085;-22
2022/04/01 05:40:31;;;;;;;7.57;4.50;;;;;;;2.63;59.83;99520.63;5096127;28;20059;-22
2022/04/01 05:42:58;;;;;;;5.97;5.05;;;;;;;2.61;60.51;99529.31;5084820;28;20026;-23
2022/04/01 05:45:25;;;;;;;6.38;5.10;;;;;;;2.59;60.13;99534.50;5098810;28;20035;-22
2022/04/01 05:47:52;;;;;;;7.38;4.72;;;;;;;2.57;60.48;99531.03;5083678;28;20028;-22
2022/04/01 05:50:18;;;;;;;10.73;5.60;;;;;;;2.54;60.37;99523.22;5077987;28;20085;-22
2022/04/01 05:52:49;;;;;;;8.82;5.80;;;;;;;2.53;60.45;99529.25;5098999;28;20028;-23
2022/04/01 05:55:16;;;;;;;6.88;5.07;;;;;;;2.48;60.58;99531.84;5082276;28;20019;-22
2022/04/01 05:57:42;;;;;;;7.68;5.30;;;;;;;2.48;60.33;99530.97;5096256;28;20102;-23
2022/04/01 06:00:12;;;;;;;6.72;5.07;;;;;;;2.46;60.25;99532.72;5097065;28;20434;-22
2022/04/01 06:02:56;;;;;;;8.63;5.30;;;;;;;2.43;60.44;99537.03;5076363;28;20046;-22
2022/04/01 06:05:34;;;;;;;8.10;5.65;;;;;;;2.42;60.68;99543.09;5094383;28;20035;-22
2022/04/01 06:08:05;;;;;;;6.75;5.00;;;;;;;2.39;60.76;99542.19;5075034;28;20049;-22
2022/04/01 06:10:47;;;;;;;8.52;5.95;;;;;;;2.37;60.94;99539.56;5091640;28;20065;-23
2022/04/01 06:13:19;;;;;;;8.15;5.70;;;;;;;2.35;61.02;99533.50;5074302;28;20047;-22
2022/04/01 06:16:16;;;;;;;6.78;5.40;;;;;;;2.34;61.09;99539.59;5094968;28;20039;-22
2022/04/01 06:19:04;;;;;;;9.18;6.30;;;;;;;2.32;61.13;99541.28;5073657;28;20073;-22
2022/04/01 06:21:37;;;;;;;7.03;5.47;;;;;;;2.29;61.30;99544.75;5097455;28;20099;-23
2022/04/01 06:24:11;;;;;;;10.50;6.15;;;;;;;2.26;61.29;99543.84;5098997;28;20039;-22
2022/04/01 06:26:48;;;;;;;7.68;5.60;;;;;;;2.25;61.19;99544.72;5099632;28;20024;-22
2022/04/01 06:29:43;;;;;;;6.93;5.28;;;;;;;2.24;61.25;99548.19;5079321;28;20418;-23
2022/04/01 06:32:20;;;;;;;8.45;5.30;;;;;;;2.21;61.41;99554.25;5094731;28;20035;-23
2022/04/01 06:35:02;;;;;;;7.80;5.30;;;;;;;2.20;61.52;99556.84;5080275;28;20028;-22
2022/04/01 06:37:32;;;;;;;7.22;5.35;;;;;;;2.17;61.63;99573.28;5097518;28;20421;-22
2022/04/01 06:40:04;;;;;;;12.40;6.35;;;;;;;2.15;61.68;99575.88;5083691;28;20374;-22
2022/04/01 06:42:32;;;;;;;7.07;5.32;;;;;;;2.14;61.47;99584.53;5095810;28;20019;-22
2022/04/01 06:44:58;;;;;;;7.93;5.75;;;;;;;2.13;62.20;99587.16;5094257;28;20110;-22
2022/04/01 06:47:24;;;;;;;6.97;5.22;;;;;;;2.12;61.82;99580.16;5096592;28;20085;-22
2022/04/01 06:49:49;;;;;;;10.05;5.85;;;;;;;2.11;61.95;99586.25;5092469;28;20036;-22
2022/04/01 06:52:16;;;;;;;8.75;5.55;;;;;;;2.09;62.06;99586.22;5093085;28;20016;-21
2022/04/01 06:54:41;;;;;;;7.68;5.70;;;;;;;2.07;62.21;99590.56;5072735;28;20067;-22
2022/04/01 06:57:07;;;;;;;8.27;6.38;;;;;;;2.06;62.25;99591.41;5088768;28;20032;-22
2022/04/01 06:59:34;;;;;;;9.00;5.80;;;;;;;2.05;62.04;99593.16;5091033;28;20036;-22
2022/04/01 07:02:00;;;;;;;10.70;6.70;;;;;;;2.04;61.99;99593.13;5092143;28;20557;-22
2022/04/01 07:04:25;;;;;;;7.32;5.28;;;;;;;2.03;62.32;99591.38;5091028;28;20107;-22
2022/04/01 07:06:51;;;;;;;7.97;6.07;;;;;;;2.02;61.96;99594.84;5092697;28;20027;-23
2022/04/01 07:09:16;;;;;;;6.82;5.63;;;;;;;2.02;62.31;99594.84;5094585;28;20461;-22
2022/04/01 07:11:42;;;;;;;7.35;5.60;;;;;;;2.01;62.21;99603.50;5072453;28;20093;-22
2022/04/01 07:14:07;;;;;;;7.80;6.10;;;;;;;1.98;62.21;99595.66;5092492;28;20019;-22
2022/04/01 07:16:33;;;;;;;7.43;5.57;;;;;;;1.98;62.29;99603.47;5091831;28;20455;-23
2022/04/01 07:18:58;;;;;;;7.93;6.25;;;;;;;1.98;62.35;99611.28;5088331;28;20027;-22
2022/04/01 07:21:24;;;;;;;8.70;6.22;;;;;;;1.98;62.42;99603.47;5100228;28;20032;-22
2022/04/01 07:23:49;;;;;;;8.98;6.05;;;;;;;1.97;62.26;99604.34;5096831;28;20046;-22
2022/04/01 07:26:15;;;;;;;8.32;6.15;;;;;;;1.97;62.17;99609.53;5093710;28;20486;-22
2022/04/01 07:28:40;;;;;;;7.45;5.85;;;;;;;1.96;62.28;99615.59;5094669;28;20030;-22
2022/04/01 07:33:50;;;;;;;7.45;5.55;;;;;;;1.95;62.09;99619.03;5097549;28;20039;-22
2022/04/01 07:36:19;;;;;;;8.35;6.55;;;;;;;1.95;62.27;99611.25;5096220;28;20020;-22
2022/04/01 07:38:45;;;;;;;7.97;6.35;;;;;;;1.94;62.14;99605.19;5074362;28;20031;-22
2022/04/01 07:41:10;;;;;;;7.60;5.40;;;;;;;1.95;62.48;99608.63;5099305;28;20447;-22
2022/04/01 07:43:36;;;;;;;10.10;5.70;;;;;;;1.93;62.26;99613.81;5082427;28;20058;-22
2022/04/01 07:46:02;;;;;;;10.07;6.78;;;;;;;1.92;62.08;99610.38;5092303;28;20497;-22
2022/04/01 07:48:28;;;;;;;8.27;6.25;;;;;;;1.92;62.35;99615.56;5095216;28;20027;-22
2022/04/01 07:50:53;;;;;;;7.30;5.65;;;;;;;1.94;62.45;99606.91;5077385;28;20421;-22
2022/04/01 07:53:19;;;;;;;7.80;5.93;;;;;;;1.92;62.46;99607.78;5098508;28;20023;-22
2022/04/01 07:55:48;;;;;;;6.68;5.53;;;;;;;1.92;62.05;99622.50;5096606;28;20032;-22
2022/04/01 07:58:14;;;;;;;7.68;6.43;;;;;;;1.90;62.07;99612.06;5095552;28;20030;-22
2022/04/01 08:00:40;;;;;;;6.95;5.60;;;;;;;1.91;62.29;99613.81;5090326;28;20461;-23
2022/04/01 08:03:05;;;;;;;9.13;6.68;;;;;;;1.92;62.01;99609.50;5094874;28;20211;-23
2022/04/01 08:05:31;;;;;;;9.60;7.10;;;;;;;1.92;61.56;99605.16;5095440;28;20015;-22
2022/04/01 08:07:56;;;;;;;8.35;6.22;;;;;;;1.94;61.43;99625.13;5051778;28;20496;-22
2022/04/01 08:10:22;;;;;;;7.95;7.13;;;;;;;1.95;61.42;99619.03;5100083;28;20496;-22
2022/04/01 08:12:47;;;;;;;7.35;6.65;;;;;;;1.95;61.56;99624.25;5095103;28;20077;-22
2022/04/01 08:15:13;;;;;;;8.07;6.88;;;;;;;1.95;61.32;99630.31;5097731;28;20016;-22
2022/04/01 08:17:38;;;;;;;7.85;6.78;;;;;;;1.96;61.32;99634.66;5097013;28;20111;-22
2022/04/01 08:20:05;;;;;;;7.72;6.85;;;;;;;1.96;60.74;99619.06;5096347;28;20460;-22
2022/04/01 08:22:30;;;;;;;8.68;6.93;;;;;;;1.98;60.93;99632.09;5095987;28;20032;-22
2022/04/01 08:24:55;;;;;;;9.60;6.85;;;;;;;1.98;60.94;99640.75;5100485;28;20458;-22
2022/04/01 08:27:21;;;;;;;11.00;7.40;;;;;;;1.99;60.70;99641.63;5078731;28;20038;-22
2022/04/01 08:29:46;;;;;;;9.25;7.07;;;;;;;1.99;60.58;99646.81;5092582;28;20065;-21
2022/04/01 08:32:12;;;;;;;11.05;7.30;;;;;;;2.00;60.47;99643.38;5097352;28;20067;-20
2022/04/01 08:34:38;;;;;;;8.98;7.57;;;;;;;2.01;60.28;99651.22;5095640;28;20043;-22
2022/04/01 08:37:06;;;;;;;13.57;6.85;;;;;;;2.01;60.26;99645.13;5097854;28;20095;-21
2022/04/01 08:39:31;;;;;;;8.23;6.43;;;;;;;2.03;60.01;99653.78;5079945;28;20024;-20
2022/04/01 08:41:57;;;;;;;8.13;5.90;;;;;;;2.03;60.06;99653.78;5093067;28;20378;-20
2022/04/01 08:44:22;;;;;;;10.52;7.25;;;;;;;2.04;59.97;99655.56;5079921;28;20106;-23
2022/04/01 08:46:48;;;;;;;7.28;6.03;;;;;;;2.06;60.14;99664.22;5100271;28;20490;-22
2022/04/01 08:49:13;;;;;;;8.38;6.13;;;;;;;2.05;60.07;99657.28;5103005;28;20073;-20
2022/04/01 08:51:39;;;;;;;6.18;5.57;;;;;;;2.05;59.88;99657.28;5097309;28;20441;-22
2022/04/01 08:54:05;;;;;;;10.25;5.78;;;;;;;2.06;59.83;99653.81;5100722;28;20073;-20
2022/04/01 08:56:31;;;;;;;6.63;5.93;;;;;;;2.06;59.53;99661.63;5098778;28;20436;-21
2022/04/01 08:58:56;;;;;;;9.75;6.38;;;;;;;2.09;59.87;99659.06;5097115;28;20027;-24
2022/04/01 09:01:22;;;;;;;11.65;7.18;;;;;;;2.11;59.61;99662.56;5086934;28;20027;-20
2022/04/01 09:03:48;;;;;;;9.43;8.35;;;;;;;2.09;59.55;99656.47;5102477;28;20019;-26
2022/04/01 09:06:13;;;;;;;12.13;9.50;;;;;;;2.09;59.48;99658.19;5095101;28;20097;-20
2022/04/01 09:08:41;;;;;;;13.75;9.70;;;;;;;2.13;59.47;99667.78;5094580;28;20525;-24
2022/04/01 09:11:18;;;;;;;16.60;11.77;;;;;;;2.13;59.31;99663.44;5092295;28;20027;-24
2022/04/01 09:13:45;;;;;;;14.82;10.43;;;;;;;2.14;59.34;99669.53;5101125;28;20043;-25
2022/04/01 09:16:27;;;;;;;13.13;10.55;;;;;;;2.15;59.68;99668.66;5098260;28;20102;-22
2022/04/01 09:18:57;;;;;;;11.50;8.85;;;;;;;2.15;59.35;99674.75;5095290;28;20032;-25
2022/04/01 09:21:28;;;;;;;13.10;9.55;;;;;;;2.17;59.30;99665.22;5096572;28;20114;-25
2022/04/01 09:23:55;;;;;;;12.30;8.98;;;;;;;2.17;59.25;99673.00;5092162;28;20058;-23
2022/04/01 09:26:41;;;;;;;9.52;8.38;;;;;;;2.21;59.40;99673.03;5096030;28;20032;-23
2022/04/01 09:29:11;;;;;;;9.90;8.23;;;;;;;2.24;59.34;99675.69;5102943;28;20047;-22
2022/04/01 09:31:39;;;;;;;10.20;7.88;;;;;;;2.25;59.24;99674.81;5098288;28;20408;-23
2022/04/01 09:34:10;;;;;;;10.75;8.25;;;;;;;2.26;59.24;99679.16;5099328;28;20107;-23
2022/04/01 09:36:39;;;;;;;12.57;7.63;;;;;;;2.29;59.24;99689.59;5099908;28;20066;-23
2022/04/01 09:39:18;;;;;;;11.57;7.38;;;;;;;2.31;59.24;99677.47;5098399;28;20020;-23
2022/04/01 09:41:52;;;;;;;9.65;7.18;;;;;;;2.33;59.26;99675.75;5083896;28;20023;-23
2022/04/01 09:44:20;;;;;;;11.25;8.32;;;;;;;2.36;59.12;99683.59;5098106;28;20081;-23
2022/04/01 09:46:52;;;;;;;9.07;8.13;;;;;;;2.39;58.91;99688.81;5100628;28;20077;-23
2022/04/01 09:49:33;;;;;;;11.52;7.82;;;;;;;2.43;59.11;99687.09;5091201;28;20356;-23
2022/04/01 09:51:59;;;;;;;12.63;7.35;;;;;;;2.44;59.04;99687.13;5093515;28;20023;-23
2022/04/01 09:54:24;;;;;;;9.30;7.43;;;;;;;2.48;59.11;99689.75;5094926;28;20081;-23
2022/04/01 09:56:58;;;;;;;10.98;7.75;;;;;;;2.51;59.13;99689.78;5090988;28;20530;-23
2022/04/01 09:59:25;;;;;;;12.88;8.63;;;;;;;2.54;59.14;99682.84;5100189;28;20448;-23
2022/04/01 10:01:51;;;;;;;10.13;8.02;;;;;;;2.57;59.07;99697.66;5100683;28;20012;-23
2022/04/01 10:04:17;;;;;;;8.48;7.18;;;;;;;2.59;59.15;99695.91;5106317;28;20166;-23
2022/04/01 10:06:42;;;;;;;11.07;7.68;;;;;;;2.64;58.72;99688.16;5094867;28;20076;-23
2022/04/01 10:09:12;;;;;;;10.57;7.18;;;;;;;2.66;58.46;99689.91;5096838;28;20012;-23
2022/04/01 10:11:40;;;;;;;10.05;6.57;;;;;;;2.71;59.11;99705.56;5097430;28;21192;-23
2022/04/01 10:14:08;;;;;;;9.50;7.32;;;;;;;2.73;59.09;99685.59;5082783;28;20040;-23
2022/04/01 10:16:35;;;;;;;9.27;7.30;;;;;;;2.76;59.00;99692.56;5081581;28;20370;-23
2022/04/01 10:19:06;;;;;;;12.02;6.60;;;;;;;2.80;59.04;99700.41;5091304;28;20020;-23
2022/04/01 10:21:33;;;;;;;10.05;7.03;;;;;;;2.83;59.13;99704.75;5076325;28;20092;-23
2022/04/01 10:24:09;;;;;;;8.60;6.07;;;;;;;2.85;58.99;99703.06;5095491;28;20019;-23
2022/04/01 10:26:37;;;;;;;6.95;6.05;;;;;;;2.89;58.91;99703.94;5072494;28;20023;-23
2022/04/01 10:29:03;;;;;;;9.63;6.03;;;;;;;2.91;58.86;99713.53;5073731;28;20070;-23
2022/04/01 10:31:29;;;;;;;7.82;6.50;;;;;;;2.91;58.90;99713.53;5073362;28;20386;-23
2022/04/01 10:34:24;;;;;;;5.32;4.88;;;;;;;2.94;58.81;99710.91;5073239;28;20035;-23
2022/04/01 10:37:02;;;;;;;5.85;5.05;;;;;;;2.97;59.03;99711.81;5088263;28;20344;-23
2022/04/01 10:39:31;;;;;;;8.23;6.05;;;;;;;2.99;58.94;99707.47;5088450;28;20020;-23
2022/04/01 10:42:07;;;;;;;7.57;6.10;;;;;;;3.02;59.14;99720.53;5094685;28;20072;-23
2022/04/01 10:44:54;;;;;;;7.90;5.97;;;;;;;3.04;58.95;99716.22;5088807;28;20036;-23
2022/04/01 10:51:36;;;;;;;6.35;5.75;;;;;;;3.06;59.17;99719.69;5091181;28;20504;-23
2022/04/01 10:53:33;;;;;;;6.10;5.45;;;;;;;3.11;59.33;99730.13;5100139;28;20495;-23
2022/04/01 10:56:20;;;;;;;6.22;5.55;;;;;;;3.12;59.20;99719.72;5100848;28;20063;-23
2022/04/01 10:59:11;;;;;;;6.30;5.28;;;;;;;3.15;59.27;99731.91;5090878;28;20481;-22
2022/04/01 11:02:04;;;;;;;8.18;5.78;;;;;;;3.16;58.99;99728.41;5095140;28;20026;-22
2022/04/01 11:04:38;;;;;;;7.63;6.57;;;;;;;3.15;59.06;99735.38;5083688;28;20393;-23
2022/04/01 11:07:25;;;;;;;8.18;6.63;;;;;;;3.18;59.10;99726.72;5088539;28;20028;-23
2022/04/01 11:09:58;;;;;;;8.95;5.97;;;;;;;3.18;58.80;99729.31;5074607;28;20032;-23
2022/04/01 11:12:30;;;;;;;9.07;5.97;;;;;;;3.19;58.68;99739.75;5090721;28;20020;-23
2022/04/01 11:17:33;;;;;;;6.80;5.20;;;;;;;3.23;59.20;99734.56;5096392;28;20111;-23
2022/04/01 11:20:03;;;;;;;10.15;6.22;;;;;;;3.26;59.27;99740.66;5096203;28;20036;-23
2022/04/01 11:22:54;;;;;;;9.13;6.10;;;;;;;3.26;58.98;99730.22;5079106;28;20508;-23
2022/04/01 11:25:22;;;;;;;8.30;5.65;;;;;;;3.30;59.21;99726.78;5095888;28;20406;-23
2022/04/01 11:27:48;;;;;;;9.10;5.35;;;;;;;3.31;59.53;99727.66;5101089;28;20036;-23
2022/04/01 11:30:16;;;;;;;11.82;5.78;;;;;;;3.34;59.07;99727.69;5097321;28;20098;-23
2022/04/01 11:32:44;;;;;;;9.02;5.50;;;;;;;3.36;59.32;99731.16;5095609;28;20035;-23
2022/04/01 11:35:12;;;;;;;7.18;4.90;;;;;;;3.37;59.29;99727.66;5100776;28;20023;-23
2022/04/01 11:37:41;;;;;;;7.13;5.38;;;;;;;3.40;59.00;99734.66;5084151;28;20648;-23
2022/04/01 11:40:08;;;;;;;6.43;4.97;;;;;;;3.42;59.22;99725.09;5100498;28;20047;-22
2022/04/01 11:42:34;;;;;;;8.60;5.30;;;;;;;3.44;58.82;99729.44;5102517;28;20019;-23
2022/04/01 11:45:00;;;;;;;7.35;5.00;;;;;;;3.47;58.86;99729.47;5095195;28;20295;-23
2022/04/01 11:47:32;;;;;;;6.00;4.53;;;;;;;3.49;58.80;99732.09;5097196;28;20020;-23
2022/04/01 11:50:08;;;;;;;7.80;5.28;;;;;;;3.52;58.62;99733.81;5090297;28;20020;-23
2022/04/01 11:52:38;;;;;;;5.18;4.68;;;;;;;3.54;58.58;99730.34;5090221;28;20023;-22
2022/04/01 11:55:18;;;;;;;8.20;5.10;;;;;;;3.56;58.26;99728.66;5092035;28;20024;-22
2022/04/01 11:57:45;;;;;;;7.68;6.40;;;;;;;3.59;58.31;99733.00;5094716;28;20485;-23
2022/04/01 12:00:18;;;;;;;10.85;7.22;;;;;;;3.62;58.17;99733.00;5101799;28;20066;-22
2022/04/01 12:02:46;;;;;;;7.90;6.65;;;;;;;3.64;58.30;99723.47;5083662;28;20394;-23
2022/04/01 12:05:12;;;;;;;7.60;6.30;;;;;;;3.66;58.01;99713.91;5093316;28;20034;-23